Time;durP1;ratioP1;P1;durP2;ratioP2;P2;SDS_P1;SDS_P2;PMS_P1;PMS_P2;Temp;Humidity;BMP_temperature;BMP_pressure;BME280_temperature;BME280_humidity;BME280_pressure;Samples;Min_cycle;Max_cycle;Signal;HPM_P1;HPM_P2
2022/11/12 05:02:34;;;;;;;5.60;5.03;;;5.10;99.90;;;;;;5021875;23;20501;-70
2022/11/12 05:05:01;;;;;;;6.00;5.40;;;5.20;99.90;;;;;;4972081;28;20448;-70
2022/11/12 05:07:28;;;;;;;5.67;5.17;;;5.20;99.90;;;;;;4972341;28;20561;-73
2022/11/12 05:09:54;;;;;;;5.70;5.10;;;5.20;99.90;;;;;;4972525;28;20456;-70
2022/11/12 05:12:21;;;;;;;6.87;5.37;;;5.20;99.90;;;;;;4955010;28;20988;-70
2022/11/12 05:14:48;;;;;;;10.10;6.90;;;5.20;99.90;;;;;;4953316;29;20958;-73
2022/11/12 05:17:14;;;;;;;6.40;5.67;;;5.20;99.90;;;;;;4953110;29;20892;-73
2022/11/12 05:19:43;;;;;;;8.10;6.57;;;5.30;99.90;;;;;;4952657;29;20454;-73
2022/11/12 05:22:10;;;;;;;10.70;6.63;;;5.30;99.90;;;;;;4953065;28;20714;-73
2022/11/12 05:24:39;;;;;;;6.50;5.80;;;5.30;99.90;;;;;;4952822;28;20497;-73
2022/11/12 05:27:08;;;;;;;7.13;5.90;;;5.30;99.90;;;;;;4956524;29;20468;-73
2022/11/12 05:29:35;;;;;;;7.33;5.80;;;5.30;99.90;;;;;;4956697;29;20465;-73
2022/11/12 05:32:02;;;;;;;8.50;6.63;;;5.30;99.90;;;;;;4956400;28;20488;-73
2022/11/12 05:34:29;;;;;;;6.87;6.17;;;5.30;99.90;;;;;;4955945;29;20453;-72
2022/11/12 05:36:57;;;;;;;10.03;6.07;;;5.30;99.90;;;;;;4956247;29;20458;-73
2022/11/12 05:39:24;;;;;;;6.43;5.73;;;5.30;99.90;;;;;;4956211;28;20453;-73
2022/11/12 05:41:51;;;;;;;6.70;5.67;;;5.30;99.90;;;;;;4955945;28;20473;-72
2022/11/12 05:44:18;;;;;;;7.53;5.47;;;5.30;99.90;;;;;;4955791;29;21009;-71
2022/11/12 05:46:45;;;;;;;6.40;5.80;;;5.30;99.90;;;;;;4955839;28;20949;-72
2022/11/12 05:49:12;;;;;;;7.33;5.70;;;5.20;99.90;;;;;;4956144;29;20481;-73
2022/11/12 05:51:39;;;;;;;9.13;7.13;;;5.30;99.90;;;;;;4956166;28;20909;-73
2022/11/12 05:54:07;;;;;;;7.17;6.47;;;5.40;99.90;;;;;;4955664;29;20445;-73
2022/11/12 05:56:34;;;;;;;9.37;6.07;;;5.40;99.90;;;;;;4955992;29;20476;-73
2022/11/12 05:59:05;;;;;;;6.97;6.07;;;5.40;99.90;;;;;;4955990;29;20464;-73
2022/11/12 06:01:32;;;;;;;8.40;6.30;;;5.30;99.90;;;;;;4955390;28;20500;-73
2022/11/12 06:03:59;;;;;;;8.40;5.90;;;5.40;99.90;;;;;;4955644;28;20493;-73
2022/11/12 06:06:26;;;;;;;5.70;5.20;;;5.40;99.90;;;;;;4955779;29;20476;-73
2022/11/12 06:08:52;;;;;;;5.73;4.90;;;5.40;99.90;;;;;;4955741;29;20458;-73
2022/11/12 06:11:21;;;;;;;6.53;5.63;;;5.30;99.90;;;;;;4955372;28;21062;-73
2022/11/12 06:13:47;;;;;;;6.00;5.40;;;5.40;99.90;;;;;;4955566;29;20454;-73
2022/11/12 06:16:14;;;;;;;5.33;4.83;;;5.30;99.90;;;;;;4955050;29;20465;-72
2022/11/12 06:18:41;;;;;;;6.43;4.90;;;5.30;99.90;;;;;;4955671;29;20480;-73
2022/11/12 06:21:20;;;;;;;7.90;4.77;;;5.30;99.90;;;;;;4955232;28;20489;-73
2022/11/12 06:23:49;;;;;;;5.80;5.20;;;5.30;99.90;;;;;;4955345;28;20516;-66
2022/11/12 06:26:16;;;;;;;6.10;4.93;;;5.20;99.90;;;;;;4955089;29;20497;-66
2022/11/12 06:28:45;;;;;;;5.57;5.07;;;5.20;99.90;;;;;;4955185;29;20466;-66
2022/11/12 06:31:12;;;;;;;5.50;4.83;;;5.20;99.90;;;;;;4955044;28;21113;-66
2022/11/12 06:33:39;;;;;;;5.97;5.37;;;5.20;99.90;;;;;;4955028;29;20953;-74
2022/11/12 06:36:07;;;;;;;7.00;6.00;;;5.20;99.90;;;;;;4954317;28;20512;-75
2022/11/12 06:38:35;;;;;;;8.33;6.27;;;5.20;99.90;;;;;;4954780;29;20465;-75
2022/11/12 06:41:03;;;;;;;6.50;5.60;;;5.20;99.90;;;;;;4954847;28;20482;-75
2022/11/12 06:43:31;;;;;;;6.83;6.13;;;5.20;99.90;;;;;;4954790;29;20856;-75
2022/11/12 06:46:04;;;;;;;6.03;5.30;;;5.20;99.90;;;;;;4955123;29;20829;-74
2022/11/12 06:48:31;;;;;;;7.70;6.27;;;5.20;99.90;;;;;;4954711;29;20832;-74
2022/11/12 06:50:58;;;;;;;7.07;5.77;;;5.20;99.90;;;;;;4954514;28;20478;-74
2022/11/12 06:53:25;;;;;;;8.77;5.60;;;5.20;99.90;;;;;;4954308;29;20449;-75
2022/11/12 06:55:52;;;;;;;8.50;5.63;;;5.20;99.90;;;;;;4954604;29;20492;-74
2022/11/12 06:58:19;;;;;;;6.10;4.60;;;5.20;99.90;;;;;;4954959;29;20496;-74
2022/11/12 07:00:46;;;;;;;7.10;5.33;;;5.20;99.90;;;;;;4954411;28;20493;-74
2022/11/12 07:03:15;;;;;;;8.07;5.40;;;5.20;99.90;;;;;;4954648;29;20493;-74
2022/11/12 07:05:42;;;;;;;6.43;5.20;;;5.20;99.90;;;;;;4954261;29;20466;-75
2022/11/12 07:08:10;;;;;;;6.17;4.97;;;5.20;99.90;;;;;;4954314;29;20461;-75
2022/11/12 07:10:36;;;;;;;8.47;5.33;;;5.20;99.90;;;;;;4954299;28;21298;-74
2022/11/12 07:13:03;;;;;;;7.13;5.50;;;5.20;99.90;;;;;;4954701;29;20460;-75
2022/11/12 07:15:30;;;;;;;8.93;6.50;;;5.30;99.90;;;;;;4954264;29;20465;-74
2022/11/12 07:17:57;;;;;;;10.20;7.70;;;5.30;99.90;;;;;;4954148;29;20462;-75
2022/11/12 07:20:25;;;;;;;10.43;8.43;;;5.30;99.90;;;;;;4954378;28;20461;-75
2022/11/12 07:22:52;;;;;;;11.37;8.63;;;5.30;99.90;;;;;;4954145;29;20464;-75
2022/11/12 07:25:18;;;;;;;13.17;9.70;;;5.30;99.90;;;;;;4953810;29;20500;-75
2022/11/12 07:27:48;;;;;;;10.43;8.53;;;5.30;99.90;;;;;;4954083;29;20475;-75
2022/11/12 07:30:16;;;;;;;8.97;7.20;;;5.30;99.90;;;;;;4954163;28;20461;-75
2022/11/12 07:32:42;;;;;;;8.73;7.83;;;5.30;99.90;;;;;;4954138;28;20468;-74
2022/11/12 07:35:09;;;;;;;12.83;8.40;;;5.30;99.90;;;;;;4953874;29;20522;-75
2022/11/12 07:37:37;;;;;;;10.60;8.10;;;5.30;99.90;;;;;;4954007;28;20950;-76
2022/11/12 07:40:05;;;;;;;11.30;8.17;;;5.40;99.90;;;;;;4954189;28;20461;-76
2022/11/12 07:42:34;;;;;;;12.57;8.67;;;5.40;99.90;;;;;;4953993;28;20477;-77
2022/11/12 07:45:01;;;;;;;13.00;8.20;;;5.50;99.90;;;;;;4953723;29;20494;-76
2022/11/12 07:47:28;;;;;;;8.60;7.70;;;5.50;99.90;;;;;;4953807;28;20548;-77
2022/11/12 07:49:55;;;;;;;10.40;8.47;;;5.50;99.90;;;;;;4953694;29;20462;-77
2022/11/12 07:52:22;;;;;;;9.67;8.10;;;5.50;99.90;;;;;;4954030;28;20473;-76
2022/11/12 07:54:50;;;;;;;9.23;6.90;;;5.60;99.90;;;;;;4953692;29;20454;-77
2022/11/12 07:57:17;;;;;;;10.83;7.03;;;5.70;99.90;;;;;;4954828;29;20844;-77
2022/11/12 07:59:43;;;;;;;8.10;6.93;;;5.80;99.90;;;;;;4954196;29;20464;-77
2022/11/12 08:02:10;;;;;;;7.27;6.30;;;5.80;99.90;;;;;;4953251;28;20497;-77
2022/11/12 08:04:37;;;;;;;7.33;6.53;;;5.90;99.90;;;;;;4953705;29;20494;-77
2022/11/12 08:07:04;;;;;;;9.30;7.27;;;6.00;99.90;;;;;;4953808;29;20461;-77
2022/11/12 08:09:30;;;;;;;9.13;6.63;;;6.00;99.90;;;;;;4953871;29;20972;-77
2022/11/12 08:11:59;;;;;;;9.53;7.13;;;6.10;99.90;;;;;;4953630;28;20540;-77
2022/11/12 08:14:25;;;;;;;7.77;6.53;;;6.20;99.90;;;;;;4953420;28;20466;-77
2022/11/12 08:16:52;;;;;;;6.80;6.10;;;6.30;99.90;;;;;;4953557;29;20457;-77
2022/11/12 08:19:19;;;;;;;9.23;6.90;;;6.40;99.90;;;;;;4953887;29;20458;-77
2022/11/12 08:21:46;;;;;;;7.13;6.40;;;6.40;99.90;;;;;;4953429;28;20488;-77
2022/11/12 08:24:12;;;;;;;9.27;7.30;;;6.50;99.90;;;;;;4953198;29;20888;-74
2022/11/12 08:26:39;;;;;;;8.03;6.67;;;6.60;99.90;;;;;;4953436;29;20827;-75
2022/11/12 08:29:07;;;;;;;7.90;6.50;;;6.70;99.90;;;;;;4953521;29;20466;-75
2022/11/12 08:31:34;;;;;;;6.83;6.13;;;6.80;99.90;;;;;;4953146;28;20481;-75
2022/11/12 08:34:10;;;;;;;7.87;5.93;;;6.80;99.90;;;;;;4953376;29;20453;-74
2022/11/12 08:36:38;;;;;;;8.80;6.50;;;7.00;99.90;;;;;;4953145;29;20453;-74
2022/11/12 08:39:06;;;;;;;8.57;6.37;;;7.10;99.90;;;;;;4953203;29;20864;-75
2022/11/12 08:41:33;;;;;;;8.60;6.33;;;7.10;99.90;;;;;;4953262;28;20488;-75
2022/11/12 08:44:00;;;;;;;7.17;6.47;;;7.30;99.90;;;;;;4952428;29;20524;-75
2022/11/12 08:46:28;;;;;;;9.70;6.57;;;7.40;99.90;;;;;;4953201;29;20469;-76
2022/11/12 08:48:54;;;;;;;8.30;6.57;;;7.50;99.90;;;;;;4953384;28;20465;-75
2022/11/12 08:51:21;;;;;;;12.40;7.77;;;7.60;99.90;;;;;;4953039;28;20488;-74
2022/11/12 08:53:48;;;;;;;7.43;6.60;;;7.70;99.90;;;;;;4953581;29;20457;-77
2022/11/12 08:56:15;;;;;;;10.13;7.03;;;7.60;99.90;;;;;;4953199;29;20457;-77
2022/11/12 08:58:42;;;;;;;9.10;6.93;;;7.70;99.90;;;;;;4953093;29;20468;-73
2022/11/12 09:01:08;;;;;;;8.87;6.63;;;7.80;99.90;;;;;;4955448;28;20491;-75
2022/11/12 09:03:37;;;;;;;10.40;7.90;;;8.00;99.90;;;;;;4957008;29;20457;-75
2022/11/12 09:06:05;;;;;;;16.60;6.80;;;8.00;99.90;;;;;;4957053;28;20523;-76
2022/11/12 09:08:33;;;;;;;12.23;7.43;;;8.10;99.90;;;;;;4957068;29;20459;-76
2022/11/12 09:11:00;;;;;;;10.87;8.00;;;8.10;99.90;;;;;;4956586;28;20483;-76
2022/11/12 09:13:27;;;;;;;13.53;7.87;;;8.30;99.90;;;;;;4956900;29;20457;-76
2022/11/12 09:15:54;;;;;;;12.00;7.80;;;8.30;99.90;;;;;;4957030;29;20472;-76
2022/11/12 09:18:21;;;;;;;10.03;7.10;;;8.40;99.90;;;;;;4957006;29;20453;-76
2022/11/12 09:20:49;;;;;;;9.30;7.90;;;8.50;99.90;;;;;;4956671;28;20490;-76
2022/11/12 09:23:17;;;;;;;10.10;7.40;;;8.60;99.90;;;;;;4956429;29;20458;-76
2022/11/12 09:25:44;;;;;;;10.23;7.50;;;8.80;99.90;;;;;;4955911;29;20498;-76
2022/11/12 09:28:12;;;;;;;8.10;7.30;;;9.10;99.90;;;;;;4956549;28;20459;-75
2022/11/12 09:30:45;;;;;;;9.53;6.83;;;9.40;99.90;;;;;;4956212;28;20480;-74
2022/11/12 09:33:12;;;;;;;7.93;6.97;;;9.60;99.90;;;;;;4956579;29;20445;-75
2022/11/12 09:35:38;;;;;;;12.90;6.77;;;9.60;99.90;;;;;;4956464;29;20460;-76
2022/11/12 09:38:07;;;;;;;8.90;6.30;;;9.60;99.90;;;;;;4956361;29;20462;-75
2022/11/12 09:40:59;;;;;;;8.17;7.37;;;9.60;99.90;;;;;;4956075;28;20484;-75
2022/11/12 09:43:30;;;;;;;10.00;8.40;;;9.70;99.90;;;;;;4956230;29;20453;-76
2022/11/12 09:46:02;;;;;;;8.70;6.83;;;9.60;99.90;;;;;;4955696;29;20519;-76
2022/11/12 09:48:35;;;;;;;9.50;7.83;;;9.60;99.90;;;;;;4955631;29;20837;-75
2022/11/12 09:51:06;;;;;;;10.57;8.30;;;9.50;99.90;;;;;;4955999;28;20480;-75
2022/11/12 09:53:40;;;;;;;19.63;7.90;;;9.60;99.90;;;;;;4956250;29;20445;-75
2022/11/12 09:56:10;;;;;;;11.40;7.97;;;9.80;99.90;;;;;;4955730;29;20457;-75
2022/11/12 09:58:37;;;;;;;11.23;10.00;;;9.90;99.90;;;;;;4955900;29;20457;-76
2022/11/12 10:01:13;;;;;;;8.13;7.00;;;9.80;99.90;;;;;;4955794;28;20493;-75
2022/11/12 10:03:46;;;;;;;10.63;8.57;;;9.60;99.90;;;;;;4955912;29;20491;-76
2022/11/12 10:06:19;;;;;;;11.57;8.40;;;9.70;99.90;;;;;;4955712;28;20441;-76
2022/11/12 10:08:52;;;;;;;11.70;9.17;;;9.70;99.90;;;;;;4956304;29;20461;-76
2022/11/12 10:12:30;;;;;;;12.27;8.17;;;9.70;99.90;;;;;;4955412;28;20485;-76
2022/11/12 10:14:38;;;;;;;12.20;8.63;;;9.80;99.90;;;;;;4955003;29;20453;-76
2022/11/12 10:17:13;;;;;;;9.50;8.17;;;9.90;99.90;;;;;;4955551;29;20450;-76
2022/11/12 10:20:00;;;;;;;9.37;8.13;;;9.90;99.90;;;;;;4955741;29;20460;-75
2022/11/12 10:22:41;;;;;;;10.03;8.17;;;10.00;99.90;;;;;;4955787;28;20483;-75
2022/11/12 10:25:16;;;;;;;11.07;9.17;;;10.00;99.90;;;;;;4955426;29;20496;-76
2022/11/12 10:27:44;;;;;;;12.40;9.20;;;10.10;99.90;;;;;;4955707;29;20521;-75
2022/11/12 10:30:17;;;;;;;13.00;8.03;;;10.30;99.90;;;;;;4955604;28;20481;-74
2022/11/12 10:32:45;;;;;;;11.10;9.23;;;10.30;99.90;;;;;;4955475;28;20446;-75
2022/11/12 10:35:17;;;;;;;12.87;8.40;;;10.40;99.90;;;;;;4955098;29;20457;-74
2022/11/12 10:37:49;;;;;;;9.00;7.80;;;10.50;99.90;;;;;;4955303;29;20457;-74
2022/11/12 10:40:30;;;;;;;9.13;7.50;;;10.60;99.90;;;;;;4955092;28;20454;-74
2022/11/12 10:42:58;;;;;;;7.30;6.50;;;10.60;99.90;;;;;;4955473;29;20452;-75
2022/11/12 10:45:26;;;;;;;8.67;7.77;;;10.70;99.90;;;;;;4955164;29;20497;-76
2022/11/12 10:47:53;;;;;;;9.70;7.50;;;10.80;99.90;;;;;;4955418;29;20548;-74
2022/11/12 10:50:22;;;;;;;9.13;7.40;;;10.80;99.90;;;;;;4955330;28;20460;-75
2022/11/12 10:52:58;;;;;;;12.87;6.57;;;10.90;99.90;;;;;;4955349;29;20457;-74
2022/11/12 10:55:29;;;;;;;9.93;7.60;;;11.00;99.90;;;;;;4955139;29;20464;-74
2022/11/12 10:58:18;;;;;;;9.70;7.00;;;11.00;99.90;;;;;;4954941;29;20457;-74
2022/11/12 11:00:57;;;;;;;8.10;6.80;;;11.10;99.90;;;;;;4954998;28;20490;-74
2022/11/12 11:03:26;;;;;;;9.50;7.07;;;11.30;99.90;;;;;;4954139;29;20449;-75
2022/11/12 11:05:56;;;;;;;8.30;6.90;;;11.50;99.90;;;;;;4954452;29;20505;-75
2022/11/12 11:08:34;;;;;;;9.40;7.50;;;11.80;99.90;;;;;;4955092;29;20448;-74
2022/11/12 11:11:24;;;;;;;15.80;7.97;;;12.10;99.90;;;;;;4954476;28;20928;-74
2022/11/12 11:13:52;;;;;;;9.45;7.30;;;12.20;99.90;;;;;;4953864;28;20444;-74
2022/11/12 11:16:21;;;;;;;9.90;7.60;;;12.50;99.90;;;;;;5018352;23;20247;-75
2022/11/12 11:18:52;;;;;;;7.50;6.70;;;12.40;99.90;;;;;;4992229;28;21050;-75
2022/11/12 11:21:57;;;;;;;10.50;7.70;;;12.50;99.90;;;;;;4992456;28;20460;-78
2022/11/12 11:24:39;;;;;;;9.30;7.57;;;12.60;99.90;;;;;;4970326;28;20459;-76
2022/11/12 11:27:20;;;;;;;8.57;7.03;;;12.60;99.90;;;;;;4992185;28;21006;-75
2022/11/12 11:30:03;;;;;;;11.80;7.90;;;12.70;99.90;;;;;;4992456;28;20452;-76
2022/11/12 11:32:47;;;;;;;8.23;6.90;;;12.80;99.90;;;;;;4992116;28;20966;-75
2022/11/12 11:35:28;;;;;;;7.30;6.47;;;12.90;99.90;;;;;;4991994;28;20547;-76
2022/11/12 11:38:14;;;;;;;8.60;6.40;;;13.00;99.90;;;;;;4992151;28;20558;-77
2022/11/12 11:40:51;;;;;;;9.40;6.13;;;13.10;99.90;;;;;;4992237;28;20447;-76
2022/11/12 11:43:42;;;;;;;6.43;5.80;;;13.20;99.90;;;;;;4991983;28;20458;-76
2022/11/12 11:46:20;;;;;;;7.00;6.30;;;13.30;99.90;;;;;;4989335;28;21218;-76
2022/11/12 11:49:06;;;;;;;9.33;6.77;;;13.40;99.90;;;;;;4991979;28;20470;-76
2022/11/12 11:51:44;;;;;;;10.23;6.57;;;13.50;99.90;;;;;;4991721;28;20463;-76
2022/11/12 11:54:41;;;;;;;9.10;6.20;;;13.60;99.90;;;;;;4991974;28;20444;-76
2022/11/12 11:57:14;;;;;;;9.03;6.10;;;13.70;99.90;;;;;;4985320;28;21007;-76
2022/11/12 11:59:58;;;;;;;12.80;7.27;;;13.90;99.90;;;;;;4991807;28;20469;-76
2022/11/12 12:03:05;;;;;;;15.30;7.13;;;14.10;99.90;;;;;;4991839;28;20505;-76
2022/11/12 12:05:40;;;;;;;7.83;6.23;;;14.50;99.90;;;;;;4991289;28;20499;-76
2022/11/12 12:08:10;;;;;;;10.37;6.83;;;14.60;99.90;;;;;;4991443;28;20542;-77
2022/11/12 12:10:49;;;;;;;7.47;6.10;;;14.70;99.90;;;;;;4991777;28;20466;-76
2022/11/12 12:13:25;;;;;;;7.73;6.60;;;14.60;99.90;;;;;;4991789;28;20454;-75
2022/11/12 12:16:25;;;;;;;6.93;6.20;;;14.50;99.90;;;;;;4991663;28;20479;-75
2022/11/12 12:18:57;;;;;;;7.57;6.33;;;14.40;99.90;;;;;;4992492;28;20539;-75
2022/11/12 12:21:25;;;;;;;10.30;6.00;;;14.40;99.90;;;;;;4992475;28;20913;-76
2022/11/12 12:23:56;;;;;;;8.07;6.20;;;14.40;99.90;;;;;;4992171;28;20944;-76
2022/11/12 12:26:27;;;;;;;10.63;6.00;;;14.40;99.90;;;;;;4992194;28;20988;-74
2022/11/12 12:28:59;;;;;;;14.23;7.37;;;14.50;99.90;;;;;;4992371;28;20467;-75
2022/11/12 12:31:32;;;;;;;7.10;5.70;;;14.50;99.90;;;;;;4992372;28;20784;-76
2022/11/12 12:34:02;;;;;;;7.70;5.30;;;14.60;99.90;;;;;;4992312;28;20474;-75
2022/11/12 12:36:34;;;;;;;5.93;5.30;;;14.60;99.90;;;;;;4995555;28;20467;-75
2022/11/12 12:39:11;;;;;;;6.77;5.77;;;14.60;99.90;;;;;;4996366;28;20817;-77
2022/11/12 12:41:46;;;;;;;7.23;5.77;;;14.70;99.90;;;;;;4996284;28;20447;-75
2022/11/12 12:44:13;;;;;;;7.03;5.53;;;14.70;99.90;;;;;;4996413;28;20450;-77
2022/11/12 12:46:45;;;;;;;5.43;4.77;;;14.80;99.90;;;;;;4995601;28;20518;-77
2022/11/12 12:49:17;;;;;;;7.67;5.10;;;14.80;99.90;;;;;;4998494;28;20459;-79
2022/11/12 12:51:44;;;;;;;7.30;5.50;;;14.80;99.90;;;;;;4996740;28;20444;-76
2022/11/12 12:54:44;;;;;;;7.33;5.43;;;14.90;99.90;;;;;;4996313;28;20463;-77
2022/11/12 12:57:31;;;;;;;7.53;5.37;;;14.80;99.90;;;;;;4991683;28;20571;-76
2022/11/12 13:00:26;;;;;;;6.17;5.57;;;14.80;99.90;;;;;;4996046;28;20448;-75
2022/11/12 13:02:55;;;;;;;7.10;5.37;;;14.90;99.90;;;;;;4996131;28;20440;-75
2022/11/12 13:05:31;;;;;;;8.07;6.27;;;14.90;99.90;;;;;;4995444;28;20499;-68
2022/11/12 13:08:01;;;;;;;6.00;4.60;;;14.90;99.90;;;;;;4995829;28;20455;-69
2022/11/12 13:10:50;;;;;;;7.10;4.60;;;15.00;99.90;;;;;;4995400;28;20447;-65
2022/11/12 13:13:32;;;;;;;8.20;5.10;;;15.10;99.90;;;;;;4995842;28;20494;-65
2022/11/12 13:16:01;;;;;;;5.57;4.90;;;15.10;99.90;;;;;;4995364;28;20483;-64
2022/11/12 13:19:00;;;;;;;5.70;4.87;;;15.20;99.90;;;;;;4995809;28;20455;-65
2022/11/12 13:21:28;;;;;;;6.53;5.20;;;15.10;99.90;;;;;;4995785;28;20464;-75
2022/11/12 13:24:06;;;;;;;8.57;5.00;;;15.20;99.90;;;;;;4995600;28;20460;-76
2022/11/12 13:27:03;;;;;;;6.80;5.20;;;15.10;99.90;;;;;;4995384;28;20499;-75
2022/11/12 13:29:41;;;;;;;16.80;5.10;;;15.00;99.90;;;;;;4995283;28;21009;-75
2022/11/12 13:32:28;;;;;;;11.33;5.40;;;15.00;99.90;;;;;;4995389;28;20546;-75
2022/11/12 13:35:20;;;;;;;9.70;5.17;;;15.00;99.90;;;;;;4995178;28;20543;-75
2022/11/12 13:37:49;;;;;;;8.87;5.40;;;15.00;99.90;;;;;;4995136;28;20443;-76
2022/11/12 13:40:20;;;;;;;6.10;4.60;;;15.00;99.90;;;;;;4994862;28;20570;-76
2022/11/12 13:42:50;;;;;;;10.50;5.47;;;15.00;99.90;;;;;;4994894;28;20493;-77
2022/11/12 13:45:18;;;;;;;11.73;7.37;;;15.00;99.90;;;;;;4994414;28;20495;-76
2022/11/12 13:47:46;;;;;;;8.10;6.17;;;15.00;99.90;;;;;;4994459;28;20451;-77
2022/11/12 13:50:19;;;;;;;11.90;7.50;;;15.20;99.90;;;;;;4994658;28;20455;-77
2022/11/12 13:52:47;;;;;;;6.60;5.30;;;15.30;99.90;;;;;;4994146;28;20959;-76
2022/11/12 13:55:15;;;;;;;67.97;17.23;;;15.40;99.90;;;;;;4993931;28;20482;-77
2022/11/12 13:57:48;;;;;;;156.73;38.23;;;15.50;99.90;;;;;;4994453;28;20466;-77
2022/11/12 14:00:26;;;;;;;31.67;8.90;;;15.60;99.90;;;;;;4994493;28;20452;-77
2022/11/12 14:02:56;;;;;;;8.67;6.30;;;15.60;99.90;;;;;;4994507;28;20466;-77
2022/11/12 14:05:28;;;;;;;7.13;5.80;;;15.60;99.90;;;;;;4994454;28;20546;-77
2022/11/12 14:08:26;;;;;;;7.83;5.60;;;15.60;99.90;;;;;;4994458;28;20554;-77
2022/11/12 14:11:06;;;;;;;9.73;5.80;;;15.50;99.90;;;;;;4952735;28;20456;-77
2022/11/12 14:13:51;;;;;;;7.90;6.30;;;15.40;99.90;;;;;;4995743;28;20521;-76
2022/11/12 14:16:29;;;;;;;7.87;6.70;;;15.40;99.90;;;;;;4994446;28;20655;-77
2022/11/12 14:19:12;;;;;;;8.73;5.53;;;15.30;99.90;;;;;;4995496;28;20467;-77
2022/11/12 14:21:40;;;;;;;8.80;5.73;;;15.30;99.90;;;;;;4995607;28;21180;-77
2022/11/12 14:24:12;;;;;;;13.27;6.10;;;15.30;99.90;;;;;;4993420;28;20510;-76
2022/11/12 14:26:41;;;;;;;22.27;9.60;;;15.30;99.90;;;;;;4994606;28;20521;-77
2022/11/12 14:29:15;;;;;;;21.90;7.73;;;15.30;99.90;;;;;;4995257;28;20470;-77
2022/11/12 14:31:45;;;;;;;10.03;6.40;;;15.30;99.90;;;;;;4995376;28;20439;-77
2022/11/12 14:34:26;;;;;;;6.97;6.00;;;15.30;99.90;;;;;;4994109;28;20458;-77
2022/11/12 14:36:56;;;;;;;11.33;6.73;;;15.30;99.90;;;;;;4994386;28;20472;-77
2022/11/12 14:39:23;;;;;;;10.20;8.30;;;15.20;99.90;;;;;;4994058;28;20972;-77
2022/11/12 14:41:51;;;;;;;10.87;9.13;;;15.20;99.90;;;;;;4994082;28;20502;-77
2022/11/12 14:44:21;;;;;;;9.70;8.70;;;15.20;99.90;;;;;;4993478;28;20475;-77
2022/11/12 14:46:50;;;;;;;11.60;7.53;;;15.20;99.90;;;;;;4993809;28;20842;-75
2022/11/12 14:49:27;;;;;;;10.43;7.60;;;15.20;99.90;;;;;;4993575;28;20466;-76
2022/11/12 14:52:04;;;;;;;22.27;9.17;;;15.10;99.90;;;;;;4993081;28;20456;-76
2022/11/12 14:54:35;;;;;;;71.50;12.77;;;15.00;99.90;;;;;;4993324;28;20494;-76
2022/11/12 14:57:04;;;;;;;13.73;7.10;;;15.00;99.90;;;;;;4993440;28;20481;-77
2022/11/12 14:59:32;;;;;;;7.80;6.77;;;14.90;99.90;;;;;;4994123;28;20463;-77
2022/11/12 15:02:07;;;;;;;44.57;10.00;;;14.90;99.90;;;;;;4994536;28;20460;-77
2022/11/12 15:04:39;;;;;;;10.50;7.43;;;14.80;99.90;;;;;;4994379;28;20471;-77
2022/11/12 15:07:22;;;;;;;8.73;7.10;;;14.80;99.90;;;;;;4993947;28;20502;-77
2022/11/12 15:09:49;;;;;;;9.57;6.77;;;14.70;99.90;;;;;;4995049;28;20440;-77
2022/11/12 15:12:22;;;;;;;11.87;6.90;;;14.60;99.90;;;;;;4995393;28;20459;-76
2022/11/12 15:14:50;;;;;;;12.10;7.67;;;14.60;99.90;;;;;;5010324;28;20460;-76
2022/11/12 15:17:30;;;;;;;9.30;6.70;;;14.50;99.90;;;;;;5012747;28;20455;-76
2022/11/12 15:20:02;;;;;;;10.83;7.60;;;14.40;99.90;;;;;;4973005;28;20441;-75
2022/11/12 15:22:30;;;;;;;8.50;7.07;;;14.30;99.90;;;;;;4993109;28;20444;-75
2022/11/12 15:25:10;;;;;;;8.50;6.27;;;14.20;99.90;;;;;;4989833;28;20834;-75
2022/11/12 15:27:39;;;;;;;10.70;7.03;;;14.10;99.90;;;;;;4991661;28;20513;-76
2022/11/12 15:30:16;;;;;;;11.70;6.43;;;14.10;99.90;;;;;;4991466;28;20452;-76
2022/11/12 15:32:43;;;;;;;10.37;6.90;;;14.00;99.90;;;;;;4993311;28;20460;-75
2022/11/12 15:35:21;;;;;;;10.20;6.93;;;13.90;99.90;;;;;;4993130;28;20494;-77
2022/11/12 15:37:49;;;;;;;10.30;6.70;;;13.90;99.90;;;;;;4990634;28;20460;-77
2022/11/12 15:40:18;;;;;;;11.80;7.97;;;13.80;99.90;;;;;;4991746;28;20462;-76
2022/11/12 15:42:46;;;;;;;9.80;7.23;;;13.80;99.90;;;;;;4990229;28;20452;-76
2022/11/12 15:45:16;;;;;;;11.60;7.97;;;13.70;99.90;;;;;;4992296;28;20487;-76
2022/11/12 15:47:43;;;;;;;21.60;9.10;;;13.70;99.90;;;;;;4992799;28;20492;-76
2022/11/12 15:50:16;;;;;;;10.60;7.60;;;13.60;99.90;;;;;;4990502;28;21172;-79
2022/11/12 15:52:46;;;;;;;10.83;7.20;;;13.50;99.90;;;;;;4993146;28;20487;-76
2022/11/12 15:55:15;;;;;;;10.67;7.13;;;13.50;99.90;;;;;;4992002;28;20479;-79
2022/11/12 15:57:44;;;;;;;9.87;7.03;;;13.40;99.90;;;;;;4995071;28;20542;-78
2022/11/12 16:00:16;;;;;;;60.20;9.80;;;13.40;99.90;;;;;;4994414;28;20487;-78
2022/11/12 16:02:44;;;;;;;8.50;6.30;;;13.20;99.90;;;;;;4994288;28;20898;-79
2022/11/12 16:05:13;;;;;;;14.80;6.23;;;13.20;99.90;;;;;;4993553;28;20566;-75
2022/11/12 16:07:40;;;;;;;9.97;6.33;;;13.10;99.90;;;;;;4991426;28;20697;-76
2022/11/12 16:10:12;;;;;;;7.30;4.93;;;13.00;99.90;;;;;;4991357;28;20474;-75
2022/11/12 16:12:41;;;;;;;6.60;4.87;;;12.90;99.90;;;;;;4996343;28;20443;-76
2022/11/12 16:15:14;;;;;;;8.07;5.80;;;12.90;99.90;;;;;;5009232;28;20955;-76
2022/11/12 16:17:41;;;;;;;6.77;4.80;;;12.90;99.90;;;;;;5000826;28;20448;-72
2022/11/12 16:20:15;;;;;;;6.17;4.90;;;12.80;99.90;;;;;;4990593;28;20466;-73
2022/11/12 16:22:42;;;;;;;5.27;4.50;;;12.70;99.90;;;;;;4983371;28;20454;-73
2022/11/12 16:25:10;;;;;;;6.77;4.77;;;12.70;99.90;;;;;;4991293;28;20485;-72
2022/11/12 16:27:38;;;;;;;6.57;4.80;;;12.60;99.90;;;;;;4988630;28;20495;-73
2022/11/12 16:30:14;;;;;;;4.63;4.13;;;12.60;99.90;;;;;;4985674;28;20456;-73
2022/11/12 16:32:41;;;;;;;6.63;4.50;;;12.50;99.90;;;;;;4991166;28;20451;-71
2022/11/12 16:35:08;;;;;;;6.90;5.03;;;12.50;99.90;;;;;;5004857;28;20458;-72
2022/11/12 16:37:37;;;;;;;8.93;5.83;;;12.40;99.90;;;;;;5004426;28;21267;-71
2022/11/12 16:40:04;;;;;;;9.27;6.13;;;12.30;99.90;;;;;;4985109;28;20467;-72
2022/11/12 16:42:31;;;;;;;10.63;6.40;;;12.30;99.90;;;;;;4985217;28;20849;-72
2022/11/12 16:44:58;;;;;;;15.47;7.63;;;12.20;99.90;;;;;;4984109;28;20546;-72
2022/11/12 16:47:26;;;;;;;13.60;7.67;;;12.10;99.90;;;;;;5003969;28;20502;-73
2022/11/12 16:49:56;;;;;;;15.83;7.60;;;12.10;99.90;;;;;;5005465;28;20461;-74
2022/11/12 16:52:23;;;;;;;10.03;6.37;;;12.00;99.90;;;;;;5005149;28;20473;-74
2022/11/12 16:54:50;;;;;;;13.30;6.40;;;12.00;99.90;;;;;;4999619;28;20463;-73
2022/11/12 16:57:17;;;;;;;7.77;5.90;;;12.00;99.90;;;;;;4985331;28;20459;-73
2022/11/12 16:59:44;;;;;;;12.80;6.80;;;11.90;99.90;;;;;;4985450;28;20456;-73
2022/11/12 17:02:14;;;;;;;9.47;6.90;;;11.90;99.90;;;;;;4994366;28;20517;-73
2022/11/12 17:04:42;;;;;;;9.40;5.70;;;11.80;99.90;;;;;;5004440;28;20453;-74
2022/11/12 17:07:09;;;;;;;6.73;5.20;;;11.80;99.90;;;;;;5004433;28;20501;-73
2022/11/12 17:09:36;;;;;;;10.97;5.50;;;11.70;99.90;;;;;;5005167;28;20973;-79
2022/11/12 17:12:03;;;;;;;5.77;4.70;;;11.70;99.90;;;;;;5005459;28;20482;-75
2022/11/12 17:14:30;;;;;;;5.90;4.97;;;11.60;99.90;;;;;;5004536;28;20807;-74
2022/11/12 17:16:56;;;;;;;7.13;5.33;;;11.60;99.90;;;;;;5003265;28;20490;-73
2022/11/12 17:19:23;;;;;;;4.80;4.30;;;11.50;99.90;;;;;;5004917;28;20462;-76
2022/11/12 17:21:51;;;;;;;9.10;5.17;;;11.50;99.90;;;;;;5007963;28;20473;-76
2022/11/12 17:24:19;;;;;;;7.10;4.87;;;11.40;99.90;;;;;;5007950;28;20463;-64
2022/11/12 17:26:46;;;;;;;7.00;4.50;;;11.30;99.90;;;;;;5008165;28;20494;-65
2022/11/12 17:29:14;;;;;;;6.43;5.03;;;11.30;99.90;;;;;;5008525;28;20545;-66
2022/11/12 17:31:40;;;;;;;9.37;4.97;;;11.20;99.90;;;;;;5008660;28;20454;-65
2022/11/12 17:34:07;;;;;;;6.93;5.63;;;11.10;99.90;;;;;;5012169;28;20461;-77
2022/11/12 17:36:34;;;;;;;8.07;5.93;;;11.00;99.90;;;;;;5012814;28;20474;-78
2022/11/12 17:39:02;;;;;;;9.07;6.10;;;11.00;99.90;;;;;;5012938;28;20463;-78
2022/11/12 17:41:29;;;;;;;7.83;6.50;;;11.00;99.90;;;;;;5020532;28;20541;-77
2022/11/12 17:43:56;;;;;;;9.83;8.20;;;10.90;99.90;;;;;;5025628;28;20465;-75
2022/11/12 17:46:23;;;;;;;10.50;7.80;;;10.90;99.90;;;;;;5025719;28;20526;-77
2022/11/12 17:48:50;;;;;;;10.43;5.90;;;10.80;99.90;;;;;;5024031;28;20458;-75
2022/11/12 17:51:20;;;;;;;7.50;6.20;;;10.80;99.90;;;;;;5024911;28;20526;-78
2022/11/12 17:53:46;;;;;;;7.67;5.97;;;10.80;99.90;;;;;;5017235;28;20473;-78
2022/11/12 17:56:17;;;;;;;6.20;5.40;;;10.70;99.90;;;;;;5016905;28;20478;-77
2022/11/12 17:58:44;;;;;;;6.37;5.03;;;10.70;99.90;;;;;;5018332;28;20455;-78
2022/11/12 18:01:14;;;;;;;6.90;5.40;;;10.60;99.90;;;;;;5017246;28;20463;-76
2022/11/12 18:03:42;;;;;;;8.00;5.27;;;10.60;99.90;;;;;;5018360;28;20481;-76
2022/11/12 18:06:12;;;;;;;7.80;5.90;;;10.50;99.90;;;;;;5015214;28;20479;-77
2022/11/12 18:08:39;;;;;;;8.00;6.30;;;10.50;99.90;;;;;;5010974;28;20954;-75
2022/11/12 18:11:06;;;;;;;9.37;6.20;;;10.50;99.90;;;;;;5011392;28;20455;-81